Time;durP1;ratioP1;P1;durP2;ratioP2;P2;SDS_P1;SDS_P2;PMS_P1;PMS_P2;Temp;Humidity;BMP_temperature;BMP_pressure;BME280_temperature;BME280_humidity;BME280_pressure;Samples;Min_cycle;Max_cycle;Signal;HPM_P1;HPM_P2
2023/05/14 00:01:34;;;;;;;;;;;;;;;14.49;44.44;99723.86;107843;1308;22400;-46
2023/05/14 00:04:01;;;;;;;;;;;;;;;14.46;44.26;99722.64;107858;1308;22510;-44
2023/05/14 00:06:26;;;;;;;;;;;;;;;14.41;45.26;99722.25;107858;1308;23039;-48
2023/05/14 00:08:51;;;;;;;;;;;;;;;14.36;45.68;99726.98;107869;1308;22442;-41
2023/05/14 00:11:16;;;;;;;;;;;;;;;14.32;45.39;99722.66;107851;1308;22502;-50
2023/05/14 00:13:42;;;;;;;;;;;;;;;14.25;45.87;99720.61;107858;1308;22529;-44
2023/05/14 00:16:07;;;;;;;;;;;;;;;14.20;45.56;99717.41;107875;1308;22465;-44
2023/05/14 00:18:32;;;;;;;;;;;;;;;14.16;46.24;99719.24;107866;1308;22474;-45
2023/05/14 00:20:57;;;;;;;;;;;;;;;14.09;46.52;99719.30;107867;1308;22447;-46
2023/05/14 00:23:23;;;;;;;;;;;;;;;14.06;46.98;99714.80;107859;1308;22890;-49
2023/05/14 00:25:48;;;;;;;;;;;;;;;14.02;46.80;99713.42;107870;1308;22409;-42
2023/05/14 00:28:14;;;;;;;;;;;;;;;13.98;47.44;99713.98;107859;1308;22407;-51
2023/05/14 00:30:39;;;;;;;;;;;;;;;13.93;47.47;99717.14;107850;1308;23149;-45
2023/05/14 00:33:05;;;;;;;;;;;;;;;13.90;47.84;99713.66;107838;1308;23106;-48
2023/05/14 00:35:30;;;;;;;;;;;;;;;13.85;48.19;99716.23;107828;1308;23144;-48
2023/05/14 00:37:55;;;;;;;;;;;;;;;13.81;47.90;99712.73;107858;1308;23209;-45
2023/05/14 00:40:24;;;;;;;;;;;;;;;13.78;47.32;99711.73;107712;1308;22462;-46
2023/05/14 00:42:49;;;;;;;;;;;;;;;13.77;48.06;99713.73;107854;1308;22444;-46
2023/05/14 00:45:14;;;;;;;;;;;;;;;13.73;48.50;99716.27;107856;1301;22481;-45
2023/05/14 00:47:40;;;;;;;;;;;;;;;13.69;48.74;99717.06;107838;1308;23134;-45
2023/05/14 00:50:05;;;;;;;;;;;;;;;13.67;48.31;99713.66;107859;1309;23089;-43
2023/05/14 00:52:31;;;;;;;;;;;;;;;13.63;48.82;99714.59;107833;1308;22421;-47
2023/05/14 00:54:57;;;;;;;;;;;;;;;13.62;48.91;99708.84;107858;1308;22445;-43
2023/05/14 00:57:22;;;;;;;;;;;;;;;13.60;48.63;99706.69;107841;1308;22649;-48
2023/05/14 00:59:47;;;;;;;;;;;;;;;13.54;48.76;99708.45;107841;1308;22430;-45
2023/05/14 01:02:12;;;;;;;;;;;;;;;13.48;47.45;99711.94;107847;1308;22421;-48
2023/05/14 01:04:38;;;;;;;;;;;;;;;13.46;49.20;99710.84;107831;1308;25194;-53
2023/05/14 01:07:03;;;;;;;;;;;;;;;13.43;49.76;99712.08;107849;1308;24408;-45
2023/05/14 01:09:34;;;;;;;;;;;;;;;13.43;49.87;99715.27;107866;1308;22447;-49
2023/05/14 01:12:05;;;;;;;;;;;;;;;13.43;49.47;99714.73;107869;1308;22434;-49
2023/05/14 01:14:30;;;;;;;;;;;;;;;13.41;50.23;99711.48;107893;1308;22441;-46
2023/05/14 01:16:57;;;;;;;;;;;;;;;13.38;50.56;99708.85;107880;1308;23200;-48
2023/05/14 01:19:42;;;;;;;;;;;;;;;13.36;50.60;99705.83;107856;1308;22432;-52
2023/05/14 01:22:07;;;;;;;;;;;;;;;13.34;50.86;99705.74;107864;1308;22450;-50
2023/05/14 01:24:32;;;;;;;;;;;;;;;13.32;50.83;99702.19;107849;1308;22496;-47
2023/05/14 01:27:02;;;;;;;;;;;;;;;13.33;51.16;99699.84;107840;1308;22536;-49
2023/05/14 01:29:29;;;;;;;;;;;;;;;13.34;51.49;99694.84;107876;1308;22433;-46
2023/05/14 01:31:56;;;;;;;;;;;;;;;13.36;51.33;99688.90;107870;1308;22447;-47
2023/05/14 01:34:22;;;;;;;;;;;;;;;13.36;51.63;99681.66;107849;1308;22432;-49
2023/05/14 01:36:49;;;;;;;;;;;;;;;13.37;52.00;99677.20;107874;1308;22431;-51
2023/05/14 01:39:14;;;;;;;;;;;;;;;13.36;52.09;99676.79;107886;1308;22539;-51
2023/05/14 01:41:41;;;;;;;;;;;;;;;13.32;51.85;99676.64;107715;1308;22418;-45
2023/05/14 01:44:07;;;;;;;;;;;;;;;13.31;51.86;99675.27;107840;1308;23471;-49
2023/05/14 01:46:32;;;;;;;;;;;;;;;13.30;51.28;99669.88;107876;1308;22434;-44
2023/05/14 01:48:58;;;;;;;;;;;;;;;13.29;51.84;99670.65;107867;1308;22439;-48
2023/05/14 01:51:24;;;;;;;;;;;;;;;13.28;51.66;99671.80;107853;1308;22415;-45
2023/05/14 01:53:49;;;;;;;;;;;;;;;13.27;51.95;99676.20;107884;1308;22450;-46
2023/05/14 01:56:15;;;;;;;;;;;;;;;13.24;51.72;99675.17;107718;1308;22519;-47
2023/05/14 01:58:40;;;;;;;;;;;;;;;13.18;52.09;99671.80;107900;1308;23345;-48
2023/05/14 02:01:05;;;;;;;;;;;;;;;13.16;52.71;99666.86;107859;1308;24508;-49
2023/05/14 02:03:30;;;;;;;;;;;;;;;13.13;52.91;99669.16;107871;1308;22445;-47
2023/05/14 02:05:56;;;;;;;;;;;;;;;13.10;52.85;99674.60;107886;1308;23272;-45
2023/05/14 02:08:21;;;;;;;;;;;;;;;13.08;52.82;99672.41;107870;1308;22459;-46
2023/05/14 02:10:46;;;;;;;;;;;;;;;13.07;53.52;99660.02;107857;1308;22463;-47
2023/05/14 02:13:11;;;;;;;;;;;;;;;13.03;52.44;99655.46;107876;1308;22427;-46
2023/05/14 02:15:37;;;;;;;;;;;;;;;12.99;51.96;99659.19;107857;1308;23079;-48
2023/05/14 02:18:02;;;;;;;;;;;;;;;12.96;53.11;99658.50;107882;1308;22425;-49
2023/05/14 02:20:27;;;;;;;;;;;;;;;12.93;53.42;99656.92;107876;1308;22455;-47
2023/05/14 02:22:52;;;;;;;;;;;;;;;12.94;52.37;99659.70;107852;1308;22539;-51
2023/05/14 02:25:17;;;;;;;;;;;;;;;12.91;53.17;99657.27;107867;1308;23155;-49
2023/05/14 02:27:43;;;;;;;;;;;;;;;12.84;53.42;99652.55;107888;1308;22484;-43
2023/05/14 02:30:08;;;;;;;;;;;;;;;12.80;53.31;99652.77;107843;1308;22457;-52
2023/05/14 02:32:33;;;;;;;;;;;;;;;12.77;53.35;99650.13;107855;1308;23878;-49
2023/05/14 02:34:59;;;;;;;;;;;;;;;12.72;55.09;99650.83;107851;1308;22443;-47
2023/05/14 02:37:24;;;;;;;;;;;;;;;12.65;56.13;99649.59;107872;1308;22444;-46
2023/05/14 02:39:49;;;;;;;;;;;;;;;12.62;56.90;99645.70;107884;1308;22444;-46
2023/05/14 02:43:38;;;;;;;;;;;;;;;12.63;55.76;99641.80;107444;1302;544374;-45
2023/05/14 02:46:04;;;;;;;;;;;;;;;12.58;55.65;99637.70;107802;1308;23163;-47
2023/05/14 02:48:29;;;;;;;;;;;;;;;12.55;55.24;99636.29;107788;1308;22509;-44
2023/05/14 02:50:54;;;;;;;;;;;;;;;12.51;55.81;99637.60;107841;1308;23296;-48
2023/05/14 02:53:19;;;;;;;;;;;;;;;12.49;56.77;99638.74;107799;1308;22483;-45
2023/05/14 02:55:45;;;;;;;;;;;;;;;12.49;57.40;99635.73;107803;1308;23119;-46
2023/05/14 02:58:10;;;;;;;;;;;;;;;12.52;56.36;99636.63;107906;1306;136535;-48
2023/05/14 03:00:35;;;;;;;;;;;;;;;12.52;56.47;99635.77;108042;1306;24920;-50
2023/05/14 03:03:00;;;;;;;;;;;;;;;12.52;56.59;99638.57;108030;1306;22534;-48
2023/05/14 03:05:25;;;;;;;;;;;;;;;12.51;57.04;99637.91;107999;1302;22460;-43
2023/05/14 03:07:52;;;;;;;;;;;;;;;12.53;58.24;99635.02;108050;1307;23144;-47
2023/05/14 03:10:17;;;;;;;;;;;;;;;12.56;59.32;99636.39;108016;1306;22462;-49
2023/05/14 03:12:42;;;;;;;;;;;;;;;12.62;58.12;99638.71;108017;1306;22451;-51
2023/05/14 03:15:08;;;;;;;;;;;;;;;12.67;58.07;99633.63;108053;1306;22472;-45
2023/05/14 03:17:33;;;;;;;;;;;;;;;12.75;59.16;99631.81;108049;1306;22461;-47
2023/05/14 03:19:58;;;;;;;;;;;;;;;12.81;58.84;99631.11;108054;1306;23153;-44
2023/05/14 03:22:24;;;;;;;;;;;;;;;12.83;59.25;99630.05;108057;1306;22569;-46
2023/05/14 03:24:49;;;;;;;;;;;;;;;12.91;59.25;99627.70;108058;1306;22513;-42
2023/05/14 03:27:14;;;;;;;;;;;;;;;12.95;58.65;99629.18;108048;1306;22445;-46
2023/05/14 03:29:40;;;;;;;;;;;;;;;12.99;57.61;99630.52;108031;1306;22445;-48
2023/05/14 03:32:05;;;;;;;;;;;;;;;13.05;57.25;99633.31;108039;1306;23711;-46
2023/05/14 03:34:30;;;;;;;;;;;;;;;13.13;58.58;99631.65;108058;1306;23337;-48
2023/05/14 03:36:56;;;;;;;;;;;;;;;13.17;57.90;99630.85;108057;1306;23104;-51
2023/05/14 03:39:21;;;;;;;;;;;;;;;13.22;57.55;99627.58;108050;1306;23295;-47
2023/05/14 03:41:46;;;;;;;;;;;;;;;13.28;57.29;99625.64;108041;1306;22457;-48
2023/05/14 03:44:12;;;;;;;;;;;;;;;13.34;58.84;99624.78;108056;1306;23083;-49
2023/05/14 03:46:37;;;;;;;;;;;;;;;13.40;59.39;99623.52;108065;1306;22545;-48
2023/05/14 03:49:02;;;;;;;;;;;;;;;13.45;58.71;99623.75;108034;1306;22461;-46
2023/05/14 03:51:28;;;;;;;;;;;;;;;13.50;58.71;99623.96;108044;1306;22555;-41
2023/05/14 03:53:53;;;;;;;;;;;;;;;13.56;58.87;99623.43;108037;1306;22463;-46
2023/05/14 03:56:18;;;;;;;;;;;;;;;13.64;58.99;99626.62;108041;1306;22442;-48
2023/05/14 03:58:43;;;;;;;;;;;;;;;13.72;58.78;99622.11;108016;1306;23128;-44
2023/05/14 04:01:08;;;;;;;;;;;;;;;13.79;58.74;99623.91;108016;1306;23243;-46
2023/05/14 04:03:34;;;;;;;;;;;;;;;13.86;58.31;99618.51;108014;1306;22436;-55
2023/05/14 04:05:59;;;;;;;;;;;;;;;13.96;58.56;99621.08;107991;1306;22513;-52
2023/05/14 04:08:24;;;;;;;;;;;;;;;14.03;56.76;99621.69;108040;1306;23267;-46
2023/05/14 04:10:50;;;;;;;;;;;;;;;14.10;54.84;99623.85;108049;1307;22436;-50
2023/05/14 04:13:15;;;;;;;;;;;;;;;14.17;53.49;99623.38;108066;1307;22526;-48
2023/05/14 04:15:40;;;;;;;;;;;;;;;14.26;52.54;99623.89;108042;1306;22464;-49
2023/05/14 04:18:06;;;;;;;;;;;;;;;14.33;52.26;99626.45;108038;1306;23111;-47
2023/05/14 04:20:31;;;;;;;;;;;;;;;14.38;51.95;99624.52;108039;1306;22499;-49
2023/05/14 04:22:56;;;;;;;;;;;;;;;14.42;51.45;99626.18;108038;1306;23156;-47
2023/05/14 04:25:22;;;;;;;;;;;;;;;14.46;50.94;99622.57;108036;1307;22454;-46
2023/05/14 04:27:48;;;;;;;;;;;;;;;14.50;50.66;99623.05;108042;1307;22409;-44
2023/05/14 04:30:13;;;;;;;;;;;;;;;14.52;50.32;99625.70;108021;1306;23239;-44
2023/05/14 04:32:38;;;;;;;;;;;;;;;14.56;49.86;99621.25;108021;1306;22441;-52
2023/05/14 04:35:04;;;;;;;;;;;;;;;14.58;49.62;99623.23;108028;1306;22456;-45
2023/05/14 04:37:30;;;;;;;;;;;;;;;14.60;49.53;99621.52;108019;1306;22424;-48
2023/05/14 04:39:55;;;;;;;;;;;;;;;14.62;49.57;99627.60;108019;1306;22435;-44
2023/05/14 04:42:20;;;;;;;;;;;;;;;14.63;49.43;99631.26;108039;1307;23262;-47
2023/05/14 04:44:45;;;;;;;;;;;;;;;14.63;49.12;99625.41;108026;1307;22460;-45
2023/05/14 04:47:11;;;;;;;;;;;;;;;14.64;49.72;99622.34;108026;1306;22444;-45
2023/05/14 04:49:36;;;;;;;;;;;;;;;14.66;49.71;99617.64;108019;1306;22541;-50
2023/05/14 04:52:01;;;;;;;;;;;;;;;14.65;49.18;99615.17;108051;1306;22448;-49
2023/05/14 04:54:26;;;;;;;;;;;;;;;14.66;49.16;99613.56;108061;1306;24455;-45
2023/05/14 04:56:53;;;;;;;;;;;;;;;14.66;49.02;99609.67;108029;1307;22452;-48
2023/05/14 04:59:19;;;;;;;;;;;;;;;14.68;48.66;99611.09;108027;1307;22421;-47
2023/05/14 05:01:44;;;;;;;;;;;;;;;14.69;48.08;99612.42;108004;1306;22431;-46
2023/05/14 05:04:09;;;;;;;;;;;;;;;14.69;48.12;99609.65;108026;1306;22416;-49
2023/05/14 05:06:35;;;;;;;;;;;;;;;14.68;48.72;99610.55;108003;1306;23198;-48
2023/05/14 05:09:00;;;;;;;;;;;;;;;14.70;48.38;99612.53;108046;1306;22435;-44
2023/05/14 05:11:25;;;;;;;;;;;;;;;14.72;48.80;99611.39;108044;1306;22444;-44
2023/05/14 05:13:50;;;;;;;;;;;;;;;14.72;48.17;99613.84;108040;1306;23238;-47
2023/05/14 05:16:16;;;;;;;;;;;;;;;14.75;48.14;99611.85;108030;1306;22504;-45
2023/05/14 05:18:43;;;;;;;;;;;;;;;14.79;48.04;99613.33;108029;1306;22423;-51
2023/05/14 05:21:08;;;;;;;;;;;;;;;14.84;47.99;99613.77;108023;1306;22422;-45
2023/05/14 05:23:33;;;;;;;;;;;;;;;14.91;48.53;99614.35;108021;1307;23303;-47
2023/05/14 05:25:58;;;;;;;;;;;;;;;14.95;47.38;99612.44;108039;1306;22441;-44
2023/05/14 05:28:24;;;;;;;;;;;;;;;14.98;47.12;99613.65;108024;1306;22470;-44
2023/05/14 05:30:49;;;;;;;;;;;;;;;15.04;47.48;99612.38;108040;1307;22584;-46
2023/05/14 05:33:14;;;;;;;;;;;;;;;15.09;46.55;99615.20;108033;1306;22560;-47
2023/05/14 05:35:40;;;;;;;;;;;;;;;15.14;45.85;99616.48;108053;1307;22455;-48
2023/05/14 05:38:06;;;;;;;;;;;;;;;15.18;45.35;99615.64;108022;1306;22456;-43
2023/05/14 05:40:31;;;;;;;;;;;;;;;15.20;45.59;99612.34;108043;1306;22465;-41
2023/05/14 05:42:56;;;;;;;;;;;;;;;15.27;45.61;99615.21;108025;1307;23097;-43
2023/05/14 05:45:21;;;;;;;;;;;;;;;15.29;45.12;99611.34;108039;1306;24419;-46
2023/05/14 05:47:46;;;;;;;;;;;;;;;15.35;45.39;99609.35;108047;1307;23355;-43
2023/05/14 05:50:12;;;;;;;;;;;;;;;15.39;45.45;99604.11;108030;1306;22429;-50
2023/05/14 05:52:37;;;;;;;;;;;;;;;15.41;45.40;99604.52;108023;1307;22509;-49
2023/05/14 05:55:03;;;;;;;;;;;;;;;15.45;46.00;99605.50;108019;1307;23234;-50
2023/05/14 05:57:28;;;;;;;;;;;;;;;15.49;45.23;99601.86;108037;1307;22519;-45
2023/05/14 05:59:53;;;;;;;;;;;;;;;15.53;46.13;99600.98;108005;1306;22430;-47
2023/05/14 06:02:19;;;;;;;;;;;;;;;15.61;45.73;99600.27;108021;1307;23104;-46
2023/05/14 06:04:44;;;;;;;;;;;;;;;15.65;45.89;99599.61;108009;1307;22431;-45
2023/05/14 06:07:09;;;;;;;;;;;;;;;15.68;45.77;99601.55;108035;1306;22422;-43
2023/05/14 06:09:35;;;;;;;;;;;;;;;15.71;45.55;99605.38;108023;1307;23235;-48
2023/05/14 06:12:00;;;;;;;;;;;;;;;15.73;45.41;99606.98;108035;1307;23182;-50
2023/05/14 06:14:25;;;;;;;;;;;;;;;15.77;44.52;99613.01;108037;1307;22487;-50
2023/05/14 06:16:50;;;;;;;;;;;;;;;15.78;44.46;99615.17;108015;1306;23136;-47
2023/05/14 06:19:15;;;;;;;;;;;;;;;15.82;44.64;99616.70;108022;1307;22481;-46
2023/05/14 06:21:41;;;;;;;;;;;;;;;15.86;44.60;99613.54;108019;1307;23146;-45
2023/05/14 06:24:06;;;;;;;;;;;;;;;15.94;44.86;99618.13;108025;1307;24469;-49
2023/05/14 06:26:31;;;;;;;;;;;;;;;15.99;44.26;99607.81;108043;1306;22437;-45
2023/05/14 06:28:56;;;;;;;;;;;;;;;16.03;43.77;99609.13;108033;1306;22441;-48
2023/05/14 06:31:22;;;;;;;;;;;;;;;16.15;44.06;99604.60;108014;1306;23148;-47
2023/05/14 06:33:47;;;;;;;;;;;;;;;16.25;43.46;99612.86;108043;1306;22440;-46
2023/05/14 06:36:12;;;;;;;;;;;;;;;16.33;43.26;99611.90;108040;1306;22421;-45
2023/05/14 06:38:37;;;;;;;;;;;;;;;16.37;42.91;99607.02;108008;1306;22441;-46
2023/05/14 06:41:02;;;;;;;;;;;;;;;16.43;42.94;99601.64;108045;1306;22432;-48
2023/05/14 06:43:28;;;;;;;;;;;;;;;16.45;43.12;99599.67;108016;1306;22490;-46
2023/05/14 06:45:53;;;;;;;;;;;;;;;16.48;42.87;99598.38;108019;1306;22540;-48
2023/05/14 06:48:18;;;;;;;;;;;;;;;16.44;42.86;99599.56;108039;1307;22399;-49
2023/05/14 06:50:44;;;;;;;;;;;;;;;16.50;43.27;99594.30;108053;1307;22430;-47
2023/05/14 06:53:10;;;;;;;;;;;;;;;16.55;43.19;99593.51;108046;1307;22426;-47
2023/05/14 06:55:35;;;;;;;;;;;;;;;16.57;43.13;99589.44;108031;1306;23196;-52
2023/05/14 06:58:00;;;;;;;;;;;;;;;16.53;42.48;99583.15;108004;1307;22556;-43
2023/05/14 07:00:26;;;;;;;;;;;;;;;16.55;42.78;99579.14;108036;1306;23237;-52
2023/05/14 07:02:52;;;;;;;;;;;;;;;16.59;42.81;99576.33;108045;1307;22467;-48
2023/05/14 07:05:17;;;;;;;;;;;;;;;16.61;42.37;99575.45;108034;1307;23305;-47
2023/05/14 07:07:42;;;;;;;;;;;;;;;16.62;41.89;99575.37;108021;1306;22423;-48
2023/05/14 07:10:08;;;;;;;;;;;;;;;16.63;41.86;99568.56;108026;1307;22536;-45
2023/05/14 07:12:33;;;;;;;;;;;;;;;16.66;42.03;99567.44;108044;1306;22434;-48
2023/05/14 07:14:58;;;;;;;;;;;;;;;16.68;41.92;99563.44;108041;1307;23187;-46
2023/05/14 07:17:23;;;;;;;;;;;;;;;16.73;41.83;99561.86;108024;1307;22506;-48
2023/05/14 07:19:49;;;;;;;;;;;;;;;16.78;41.99;99564.84;108015;1306;23989;-49
2023/05/14 07:22:15;;;;;;;;;;;;;;;16.85;41.84;99562.37;108052;1306;22433;-46
2023/05/14 07:24:40;;;;;;;;;;;;;;;16.89;41.65;99560.95;108012;1306;23221;-49
2023/05/14 07:27:05;;;;;;;;;;;;;;;16.97;41.68;99556.69;108037;1306;22442;-52
2023/05/14 07:29:33;;;;;;;;;;;;;;;17.01;41.58;99552.40;108013;1306;23345;-48
2023/05/14 07:31:59;;;;;;;;;;;;;;;17.06;41.80;99552.39;108042;1306;23182;-52
2023/05/14 07:34:24;;;;;;;;;;;;;;;17.13;41.70;99547.25;108004;1306;22438;-46
2023/05/14 07:36:49;;;;;;;;;;;;;;;17.19;41.53;99547.29;108035;1306;22434;-48
2023/05/14 07:39:14;;;;;;;;;;;;;;;17.24;41.28;99547.11;108040;1307;22484;-52
2023/05/14 07:41:39;;;;;;;;;;;;;;;17.28;41.16;99545.69;108008;1307;22471;-43
2023/05/14 07:44:05;;;;;;;;;;;;;;;17.38;41.09;99548.64;108019;1307;22436;-46
2023/05/14 07:46:30;;;;;;;;;;;;;;;17.46;40.52;99551.02;108029;1306;22441;-48
2023/05/14 07:48:55;;;;;;;;;;;;;;;17.53;40.26;99549.18;108033;1307;22444;-46
2023/05/14 07:51:20;;;;;;;;;;;;;;;17.59;40.21;99549.30;108050;1306;22415;-48
2023/05/14 07:53:46;;;;;;;;;;;;;;;17.65;40.27;99545.79;108032;1306;22441;-49
2023/05/14 07:56:11;;;;;;;;;;;;;;;17.73;40.34;99541.07;108032;1306;23336;-45
2023/05/14 07:58:36;;;;;;;;;;;;;;;17.86;40.05;99545.71;107747;1306;22477;-50
2023/05/14 08:01:05;;;;;;;;;;;;;;;18.02;39.34;99551.89;108059;1307;22491;-47
2023/05/14 08:03:31;;;;;;;;;;;;;;;18.14;38.38;99547.29;108040;1307;22602;-56
2023/05/14 08:05:56;;;;;;;;;;;;;;;18.33;38.38;99541.14;108045;1307;22437;-47
2023/05/14 08:08:21;;;;;;;;;;;;;;;18.55;37.94;99540.70;108053;1307;23104;-45
2023/05/14 08:10:47;;;;;;;;;;;;;;;18.79;37.69;99551.51;108055;1307;23177;-53
2023/05/14 08:13:13;;;;;;;;;;;;;;;18.99;37.05;99545.48;108015;1306;22539;-49
2023/05/14 08:15:38;;;;;;;;;;;;;;;19.05;36.02;99547.65;108018;1307;22449;-43
2023/05/14 08:18:04;;;;;;;;;;;;;;;19.12;35.20;99543.67;108029;1306;22490;-50
2023/05/14 08:20:29;;;;;;;;;;;;;;;19.18;35.07;99544.95;108005;1306;22424;-42
2023/05/14 08:22:55;;;;;;;;;;;;;;;19.23;34.00;99543.10;108022;1306;22507;-47
2023/05/14 08:25:21;;;;;;;;;;;;;;;19.37;34.83;99540.06;108074;1306;22475;-46
2023/05/14 08:27:46;;;;;;;;;;;;;;;19.52;34.88;99542.34;108043;1307;23600;-45
2023/05/14 08:30:11;;;;;;;;;;;;;;;19.53;34.70;99540.96;108041;1307;22440;-48
2023/05/14 08:32:37;;;;;;;;;;;;;;;19.67;35.05;99537.13;108039;1307;23334;-43
2023/05/14 08:35:02;;;;;;;;;;;;;;;19.80;34.51;99529.37;108032;1306;22545;-48
2023/05/14 08:37:28;;;;;;;;;;;;;;;19.82;34.49;99524.26;108047;1307;23138;-48
2023/05/14 08:39:55;;;;;;;;;;;;;;;19.89;35.07;99528.89;108045;1307;24078;-53
2023/05/14 08:42:22;;;;;;;;;;;;;;;20.00;35.05;99524.77;108049;1307;23335;-46
2023/05/14 08:44:48;;;;;;;;;;;;;;;20.02;34.22;99517.31;108030;1306;22456;-45
2023/05/14 08:47:14;;;;;;;;;;;;;;;20.06;34.34;99508.90;108049;1307;22445;-45
2023/05/14 08:49:41;;;;;;;;;;;;;;;20.24;35.10;99501.03;108050;1307;23308;-52
2023/05/14 08:52:07;;;;;;;;;;;;;;;20.39;34.57;99501.92;108034;1306;22438;-46
2023/05/14 08:54:33;;;;;;;;;;;;;;;20.55;34.35;99507.55;108057;1306;22595;-49
2023/05/14 08:56:58;;;;;;;;;;;;;;;20.71;33.89;99509.98;107528;1304;22484;-47
2023/05/14 08:59:24;;;;;;;;;;;;;;;20.94;34.01;99507.19;108041;1306;22529;-50
2023/05/14 09:01:51;;;;;;;;;;;;;;;21.13;33.43;99511.79;108045;1306;22556;-45
2023/05/14 09:04:18;;;;;;;;;;;;;;;21.17;33.22;99508.39;108040;1307;22419;-44
2023/05/14 09:06:45;;;;;;;;;;;;;;;21.24;32.76;99508.88;108040;1307;22399;-48
2023/05/14 09:09:11;;;;;;;;;;;;;;;21.43;32.58;99505.70;108047;1307;22477;-45
2023/05/14 09:11:41;;;;;;;;;;;;;;;21.59;32.49;99504.90;108066;1306;22418;-48
2023/05/14 09:14:06;;;;;;;;;;;;;;;21.75;32.41;99498.98;108025;1307;23182;-45
2023/05/14 09:16:31;;;;;;;;;;;;;;;21.90;31.79;99502.19;108037;1307;23302;-47
2023/05/14 09:18:57;;;;;;;;;;;;;;;22.09;31.38;99502.20;108046;1306;23241;-48
2023/05/14 09:21:22;;;;;;;;;;;;;;;22.40;31.61;99494.50;108051;1307;22545;-47
2023/05/14 09:23:52;;;;;;;;;;;;;;;22.67;30.35;99500.09;108045;1307;23166;-49
2023/05/14 09:26:17;;;;;;;;;;;;;;;23.01;29.82;99501.45;108032;1306;22451;-43
2023/05/14 09:28:43;;;;;;;;;;;;;;;23.43;29.16;99494.55;108066;1306;22413;-50
2023/05/14 09:31:09;;;;;;;;;;;;;;;23.99;28.98;99488.65;108045;1306;22439;-43
2023/05/14 09:33:34;;;;;;;;;;;;;;;24.54;28.13;99486.74;108029;1307;22907;-47
2023/05/14 09:36:00;;;;;;;;;;;;;;;25.07;29.05;99479.61;108041;1307;22412;-43
2023/05/14 09:38:28;;;;;;;;;;;;;;;25.36;27.21;99478.19;108049;1306;22430;-43
2023/05/14 09:40:54;;;;;;;;;;;;;;;25.62;27.05;99473.50;108035;1307;22557;-50
2023/05/14 09:43:19;;;;;;;;;;;;;;;25.97;25.92;99464.44;108047;1306;22512;-48
2023/05/14 09:45:44;;;;;;;;;;;;;;;26.15;25.59;99468.00;108029;1307;23129;-50
2023/05/14 09:48:09;;;;;;;;;;;;;;;26.12;26.14;99460.83;108027;1307;22482;-44
2023/05/14 09:50:40;;;;;;;;;;;;;;;26.45;25.78;99461.09;108055;1306;22455;-50
2023/05/14 09:53:06;;;;;;;;;;;;;;;26.61;25.28;99454.23;108037;1306;22456;-47
2023/05/14 09:55:31;;;;;;;;;;;;;;;27.02;24.18;99451.67;108026;1307;22450;-47
2023/05/14 09:57:56;;;;;;;;;;;;;;;27.36;24.21;99455.73;108051;1307;22612;-47
2023/05/14 10:00:22;;;;;;;;;;;;;;;27.95;23.50;99447.18;108040;1306;22442;-43
2023/05/14 10:02:48;;;;;;;;;;;;;;;28.36;22.74;99436.43;108042;1306;22442;-47
2023/05/14 10:05:15;;;;;;;;;;;;;;;28.57;21.97;99435.70;108044;1306;22420;-45
2023/05/14 10:07:50;;;;;;;;;;;;;;;28.80;21.92;99437.40;108051;1306;22388;-45
2023/05/14 10:10:19;;;;;;;;;;;;;;;29.03;21.66;99432.66;108051;1307;22501;-47
2023/05/14 10:12:48;;;;;;;;;;;;;;;29.30;21.42;99439.45;108039;1307;22432;-47
2023/05/14 10:15:19;;;;;;;;;;;;;;;29.06;21.93;99442.57;108032;1306;23365;-45
2023/05/14 10:17:47;;;;;;;;;;;;;;;28.91;21.73;99432.22;108020;1306;22424;-46
2023/05/14 10:20:14;;;;;;;;;;;;;;;29.21;22.00;99423.58;108051;1307;22422;-47
2023/05/14 10:22:39;;;;;;;;;;;;;;;29.62;21.42;99428.02;108054;1307;22543;-46
2023/05/14 10:25:05;;;;;;;;;;;;;;;29.61;21.23;99429.71;108019;1306;22456;-43
2023/05/14 10:27:31;;;;;;;;;;;;;;;29.87;21.32;99420.81;108054;1307;23321;-44
2023/05/14 10:29:56;;;;;;;;;;;;;;;30.10;21.00;99408.62;108033;1307;22425;-42
2023/05/14 10:32:23;;;;;;;;;;;;;;;30.55;20.91;99405.09;108017;1307;22427;-43
2023/05/14 10:34:49;;;;;;;;;;;;;;;30.94;20.30;99401.55;108048;1307;22473;-48
2023/05/14 10:37:14;;;;;;;;;;;;;;;30.24;20.80;99399.27;108044;1298;23170;-39
2023/05/14 10:39:46;;;;;;;;;;;;;;;29.55;21.70;99402.02;108092;1305;22442;-46
2023/05/14 10:42:17;;;;;;;;;;;;;;;28.56;22.25;99401.17;108065;1301;22441;-47
2023/05/14 10:44:51;;;;;;;;;;;;;;;27.70;23.31;99394.84;108063;1299;22453;-47
2023/05/14 10:47:16;;;;;;;;;;;;;;;27.65;23.62;99391.48;108076;1303;22447;-49
2023/05/14 10:49:42;;;;;;;;;;;;;;;28.18;23.69;99389.44;108157;1305;22459;-43
2023/05/14 10:52:08;;;;;;;;;;;;;;;28.80;23.22;99386.55;108145;1305;22435;-49
2023/05/14 10:54:36;;;;;;;;;;;;;;;29.31;22.78;99388.00;108146;1305;22451;-48
2023/05/14 10:57:01;;;;;;;;;;;;;;;29.06;22.38;99384.23;108125;1305;22454;-48
2023/05/14 10:59:27;;;;;;;;;;;;;;;29.23;22.35;99377.70;108124;1305;23251;-46
2023/05/14 11:01:52;;;;;;;;;;;;;;;29.20;22.09;99381.08;108134;1305;23223;-46
2023/05/14 11:04:18;;;;;;;;;;;;;;;28.63;22.43;99378.06;108143;1305;22522;-47
2023/05/14 11:06:45;;;;;;;;;;;;;;;29.28;22.31;99375.72;108131;1305;23229;-44
2023/05/14 11:09:12;;;;;;;;;;;;;;;29.16;22.25;99374.77;108090;1299;22482;-43
2023/05/14 11:11:37;;;;;;;;;;;;;;;28.51;22.78;99375.48;108119;1298;22437;-46
2023/05/14 11:14:02;;;;;;;;;;;;;;;28.27;23.17;99375.75;108129;1305;22450;-50
2023/05/14 11:16:29;;;;;;;;;;;;;;;28.26;23.29;99367.80;108121;1305;24574;-43
2023/05/14 11:19:02;;;;;;;;;;;;;;;28.05;23.49;99362.48;108156;1305;23267;-49
2023/05/14 11:21:28;;;;;;;;;;;;;;;27.60;23.97;99359.69;108153;1305;23646;-42
2023/05/14 11:23:54;;;;;;;;;;;;;;;27.12;24.76;99362.05;108127;1305;22428;-44
2023/05/14 11:26:21;;;;;;;;;;;;;;;26.88;25.00;99368.92;108168;1305;22417;-45
2023/05/14 11:28:46;;;;;;;;;;;;;;;26.85;25.34;99370.80;108159;1305;22442;-44
2023/05/14 11:31:12;;;;;;;;;;;;;;;26.76;24.83;99371.30;108091;1306;22457;-46
2023/05/14 11:33:38;;;;;;;;;;;;;;;26.87;25.38;99364.30;108041;1299;22513;-43
2023/05/14 11:36:03;;;;;;;;;;;;;;;26.85;25.31;99356.33;108146;1306;23612;-41
2023/05/14 11:38:29;;;;;;;;;;;;;;;26.86;25.05;99360.75;108038;1302;22434;-43
2023/05/14 11:40:54;;;;;;;;;;;;;;;27.21;24.85;99350.16;108093;1301;23190;-47
2023/05/14 11:43:22;;;;;;;;;;;;;;;27.82;24.60;99344.29;108072;1305;22437;-44
2023/05/14 11:45:54;;;;;;;;;;;;;;;28.47;23.45;99344.33;108042;1306;22476;-40
2023/05/14 11:48:20;;;;;;;;;;;;;;;28.82;22.55;99341.04;108010;1301;23149;-45
2023/05/14 11:50:49;;;;;;;;;;;;;;;29.25;22.60;99344.52;108075;1298;23067;-45
2023/05/14 11:53:15;;;;;;;;;;;;;;;29.58;22.07;99341.11;108053;1298;22444;-43
2023/05/14 11:55:40;;;;;;;;;;;;;;;29.55;21.81;99343.45;108070;1305;23334;-44
2023/05/14 11:58:06;;;;;;;;;;;;;;;29.60;21.64;99344.45;108123;1305;22409;-46
2023/05/14 12:00:32;;;;;;;;;;;;;;;29.93;22.02;99335.59;108137;1305;24440;-46
2023/05/14 12:02:58;;;;;;;;;;;;;;;30.11;21.81;99336.66;108169;1305;22452;-44
2023/05/14 12:05:23;;;;;;;;;;;;;;;29.85;21.15;99336.89;108140;1301;22595;-42
2023/05/14 12:07:49;;;;;;;;;;;;;;;29.89;20.96;99338.85;108066;1299;22447;-46
2023/05/14 12:10:14;;;;;;;;;;;;;;;29.68;21.24;99334.54;108027;1301;23278;-47
2023/05/14 12:12:43;;;;;;;;;;;;;;;29.17;21.70;99334.40;108024;1307;22455;-46
2023/05/14 12:15:09;;;;;;;;;;;;;;;28.89;22.39;99334.48;108078;1305;22532;-43
2023/05/14 12:17:36;;;;;;;;;;;;;;;28.96;22.82;99332.67;108074;1299;22479;-49
2023/05/14 12:20:02;;;;;;;;;;;;;;;29.33;22.28;99332.73;108029;1305;22443;-42
2023/05/14 12:22:28;;;;;;;;;;;;;;;29.33;22.43;99330.34;108086;1306;22828;-46
2023/05/14 12:24:54;;;;;;;;;;;;;;;29.50;22.51;99327.19;108073;1306;22417;-44
2023/05/14 12:27:23;;;;;;;;;;;;;;;29.59;22.24;99311.89;108047;1306;22423;-42
2023/05/14 12:29:52;;;;;;;;;;;;;;;29.20;22.09;99316.50;108033;1306;22592;-41